sensor_id;sensor_type;location;lat;lon;timestamp;temperature;humidity
12769;DHT22;6448;48.916;8.990;2023-04-07T00:00:42;14.00;52.30
12769;DHT22;6448;48.916;8.990;2023-04-07T00:01:44;14.00;52.10
12769;DHT22;6448;48.916;8.990;2023-04-07T00:02:45;13.90;52.10
12769;DHT22;6448;48.916;8.990;2023-04-07T00:03:49;14.00;52.10
12769;DHT22;6448;48.916;8.990;2023-04-07T00:04:50;13.90;52.10
12769;DHT22;6448;48.916;8.990;2023-04-07T00:05:52;13.90;52.00
12769;DHT22;6448;48.916;8.990;2023-04-07T00:06:53;13.90;51.90
12769;DHT22;6448;48.916;8.990;2023-04-07T00:07:54;14.00;52.10
12769;DHT22;6448;48.916;8.990;2023-04-07T00:08:55;13.90;52.20
12769;DHT22;6448;48.916;8.990;2023-04-07T00:09:57;14.00;52.10
12769;DHT22;6448;48.916;8.990;2023-04-07T00:10:58;13.90;51.90
12769;DHT22;6448;48.916;8.990;2023-04-07T00:12:00;14.00;52.00
12769;DHT22;6448;48.916;8.990;2023-04-07T00:13:02;13.90;51.90
12769;DHT22;6448;48.916;8.990;2023-04-07T00:14:04;13.90;51.70
12769;DHT22;6448;48.916;8.990;2023-04-07T00:15:06;13.90;51.60
12769;DHT22;6448;48.916;8.990;2023-04-07T00:16:08;13.90;51.70
12769;DHT22;6448;48.916;8.990;2023-04-07T00:17:08;13.90;51.70
12769;DHT22;6448;48.916;8.990;2023-04-07T00:18:10;14.10;52.00
12769;DHT22;6448;48.916;8.990;2023-04-07T00:19:12;13.90;51.80
12769;DHT22;6448;48.916;8.990;2023-04-07T00:20:14;13.90;51.90
12769;DHT22;6448;48.916;8.990;2023-04-07T00:21:15;14.00;51.90
12769;DHT22;6448;48.916;8.990;2023-04-07T00:22:17;13.90;52.10
12769;DHT22;6448;48.916;8.990;2023-04-07T00:23:18;13.90;51.90
12769;DHT22;6448;48.916;8.990;2023-04-07T00:24:20;14.00;51.90
12769;DHT22;6448;48.916;8.990;2023-04-07T00:25:21;14.00;52.00
12769;DHT22;6448;48.916;8.990;2023-04-07T00:26:23;14.00;52.50
12769;DHT22;6448;48.916;8.990;2023-04-07T00:27:26;13.90;51.80
12769;DHT22;6448;48.916;8.990;2023-04-07T00:28:28;13.90;51.80
12769;DHT22;6448;48.916;8.990;2023-04-07T00:29:29;14.10;52.00
12769;DHT22;6448;48.916;8.990;2023-04-07T00:30:32;14.00;52.00
12769;DHT22;6448;48.916;8.990;2023-04-07T00:31:32;14.00;52.00
12769;DHT22;6448;48.916;8.990;2023-04-07T00:32:34;13.90;52.00
12769;DHT22;6448;48.916;8.990;2023-04-07T00:33:35;14.00;52.10
12769;DHT22;6448;48.916;8.990;2023-04-07T00:34:38;14.00;52.10
12769;DHT22;6448;48.916;8.990;2023-04-07T00:35:39;13.90;51.80
12769;DHT22;6448;48.916;8.990;2023-04-07T00:36:41;14.00;51.90
12769;DHT22;6448;48.916;8.990;2023-04-07T00:37:42;13.90;51.70
12769;DHT22;6448;48.916;8.990;2023-04-07T00:38:44;13.90;51.70
12769;DHT22;6448;48.916;8.990;2023-04-07T00:39:45;14.00;51.70
12769;DHT22;6448;48.916;8.990;2023-04-07T00:40:47;13.90;51.80
12769;DHT22;6448;48.916;8.990;2023-04-07T00:41:48;13.90;52.00
12769;DHT22;6448;48.916;8.990;2023-04-07T00:42:51;14.00;52.20
12769;DHT22;6448;48.916;8.990;2023-04-07T00:43:52;13.90;52.20
12769;DHT22;6448;48.916;8.990;2023-04-07T00:44:54;13.90;52.10
12769;DHT22;6448;48.916;8.990;2023-04-07T00:45:55;14.00;52.20
12769;DHT22;6448;48.916;8.990;2023-04-07T00:46:57;13.90;52.20
12769;DHT22;6448;48.916;8.990;2023-04-07T00:47:59;13.90;52.20
12769;DHT22;6448;48.916;8.990;2023-04-07T00:49:00;13.90;52.00
12769;DHT22;6448;48.916;8.990;2023-04-07T00:50:04;13.90;52.00
12769;DHT22;6448;48.916;8.990;2023-04-07T00:51:07;14.00;52.00
12769;DHT22;6448;48.916;8.990;2023-04-07T00:52:08;13.90;52.10
12769;DHT22;6448;48.916;8.990;2023-04-07T00:53:11;13.90;52.00
12769;DHT22;6448;48.916;8.990;2023-04-07T00:54:12;13.90;51.90
12769;DHT22;6448;48.916;8.990;2023-04-07T00:55:15;13.90;52.00
12769;DHT22;6448;48.916;8.990;2023-04-07T00:56:16;14.00;51.90
12769;DHT22;6448;48.916;8.990;2023-04-07T00:57:18;13.90;52.10
12769;DHT22;6448;48.916;8.990;2023-04-07T00:58:19;13.90;52.20
12769;DHT22;6448;48.916;8.990;2023-04-07T00:59:21;14.00;52.10
12769;DHT22;6448;48.916;8.990;2023-04-07T01:00:22;14.00;51.90
12769;DHT22;6448;48.916;8.990;2023-04-07T01:01:28;14.00;52.00
12769;DHT22;6448;48.916;8.990;2023-04-07T01:02:34;13.90;52.00
12769;DHT22;6448;48.916;8.990;2023-04-07T01:03:44;13.90;51.80
12769;DHT22;6448;48.916;8.990;2023-04-07T01:04:50;14.00;52.00
12769;DHT22;6448;48.916;8.990;2023-04-07T01:05:59;13.90;52.10
12769;DHT22;6448;48.916;8.990;2023-04-07T01:07:05;13.90;52.40
12769;DHT22;6448;48.916;8.990;2023-04-07T01:08:19;14.00;52.40
12769;DHT22;6448;48.916;8.990;2023-04-07T01:09:26;13.90;52.50
12769;DHT22;6448;48.916;8.990;2023-04-07T01:10:36;13.90;52.50
12769;DHT22;6448;48.916;8.990;2023-04-07T01:11:53;13.90;52.60
12769;DHT22;6448;48.916;8.990;2023-04-07T01:13:03;13.90;52.60
12769;DHT22;6448;48.916;8.990;2023-04-07T01:14:06;13.90;52.50
12769;DHT22;6448;48.916;8.990;2023-04-07T01:15:19;13.90;52.50
12769;DHT22;6448;48.916;8.990;2023-04-07T01:16:29;13.90;52.50
12769;DHT22;6448;48.916;8.990;2023-04-07T01:17:32;13.90;52.50
12769;DHT22;6448;48.916;8.990;2023-04-07T01:18:35;13.90;52.50
12769;DHT22;6448;48.916;8.990;2023-04-07T01:19:42;13.90;53.00
12769;DHT22;6448;48.916;8.990;2023-04-07T01:20:49;13.90;52.50
12769;DHT22;6448;48.916;8.990;2023-04-07T01:21:55;13.90;52.60
12769;DHT22;6448;48.916;8.990;2023-04-07T01:23:00;13.90;52.50
12769;DHT22;6448;48.916;8.990;2023-04-07T01:25:53;13.80;52.60
12769;DHT22;6448;48.916;8.990;2023-04-07T01:27:14;13.90;52.80
12769;DHT22;6448;48.916;8.990;2023-04-07T01:28:34;13.90;52.70
12769;DHT22;6448;48.916;8.990;2023-04-07T01:29:41;13.90;52.60
12769;DHT22;6448;48.916;8.990;2023-04-07T01:30:48;13.90;52.80
12769;DHT22;6448;48.916;8.990;2023-04-07T01:31:50;13.80;52.80
12769;DHT22;6448;48.916;8.990;2023-04-07T01:32:55;13.80;52.60
12769;DHT22;6448;48.916;8.990;2023-04-07T01:33:59;13.90;52.80
12769;DHT22;6448;48.916;8.990;2023-04-07T01:35:02;13.90;53.00
12769;DHT22;6448;48.916;8.990;2023-04-07T01:36:06;13.90;53.00
12769;DHT22;6448;48.916;8.990;2023-04-07T01:37:08;13.80;52.90
12769;DHT22;6448;48.916;8.990;2023-04-07T01:38:11;13.90;53.10
12769;DHT22;6448;48.916;8.990;2023-04-07T01:39:12;13.80;53.20
12769;DHT22;6448;48.916;8.990;2023-04-07T01:40:15;13.90;53.20
12769;DHT22;6448;48.916;8.990;2023-04-07T01:41:17;13.80;52.80
12769;DHT22;6448;48.916;8.990;2023-04-07T01:42:20;13.90;52.90
12769;DHT22;6448;48.916;8.990;2023-04-07T01:43:22;13.80;53.10
12769;DHT22;6448;48.916;8.990;2023-04-07T01:44:25;13.90;53.20
12769;DHT22;6448;48.916;8.990;2023-04-07T01:45:28;13.80;53.70
12769;DHT22;6448;48.916;8.990;2023-04-07T01:46:30;13.80;52.90
12769;DHT22;6448;48.916;8.990;2023-04-07T01:47:32;13.80;52.80
12769;DHT22;6448;48.916;8.990;2023-04-07T01:48:35;13.80;52.80
12769;DHT22;6448;48.916;8.990;2023-04-07T01:49:37;13.80;52.80
12769;DHT22;6448;48.916;8.990;2023-04-07T01:50:41;13.80;52.50
12769;DHT22;6448;48.916;8.990;2023-04-07T01:51:42;13.80;52.60
12769;DHT22;6448;48.916;8.990;2023-04-07T01:52:49;13.80;52.60
12769;DHT22;6448;48.916;8.990;2023-04-07T01:53:51;13.80;52.80
12769;DHT22;6448;48.916;8.990;2023-04-07T01:54:53;13.80;52.90
12769;DHT22;6448;48.916;8.990;2023-04-07T01:55:55;13.80;52.80
12769;DHT22;6448;48.916;8.990;2023-04-07T01:56:56;13.80;52.80
12769;DHT22;6448;48.916;8.990;2023-04-07T01:58:03;13.90;52.90
12769;DHT22;6448;48.916;8.990;2023-04-07T01:59:05;14.00;52.90
12769;DHT22;6448;48.916;8.990;2023-04-07T02:00:07;13.80;52.80
12769;DHT22;6448;48.916;8.990;2023-04-07T02:01:28;13.80;52.70
12769;DHT22;6448;48.916;8.990;2023-04-07T02:02:29;13.80;52.70
12769;DHT22;6448;48.916;8.990;2023-04-07T02:03:38;13.80;52.70
12769;DHT22;6448;48.916;8.990;2023-04-07T02:04:46;13.80;52.70
12769;DHT22;6448;48.916;8.990;2023-04-07T02:05:54;13.80;52.60
12769;DHT22;6448;48.916;8.990;2023-04-07T02:07:04;14.00;52.70
12769;DHT22;6448;48.916;8.990;2023-04-07T02:08:15;13.80;52.70
12769;DHT22;6448;48.916;8.990;2023-04-07T02:09:18;13.80;52.70
12769;DHT22;6448;48.916;8.990;2023-04-07T02:10:23;13.80;52.70
12769;DHT22;6448;48.916;8.990;2023-04-07T02:11:28;13.80;52.80
12769;DHT22;6448;48.916;8.990;2023-04-07T02:12:37;13.80;52.90
12769;DHT22;6448;48.916;8.990;2023-04-07T02:13:47;13.90;53.00
12769;DHT22;6448;48.916;8.990;2023-04-07T02:14:49;13.80;53.00
12769;DHT22;6448;48.916;8.990;2023-04-07T02:15:51;13.90;52.90
12769;DHT22;6448;48.916;8.990;2023-04-07T02:16:58;13.90;52.80
12769;DHT22;6448;48.916;8.990;2023-04-07T02:18:01;13.80;52.80
12769;DHT22;6448;48.916;8.990;2023-04-07T02:19:04;13.80;52.70
12769;DHT22;6448;48.916;8.990;2023-04-07T02:20:06;13.90;52.80
12769;DHT22;6448;48.916;8.990;2023-04-07T02:21:11;13.80;52.80
12769;DHT22;6448;48.916;8.990;2023-04-07T02:22:15;13.90;52.80
12769;DHT22;6448;48.916;8.990;2023-04-07T02:23:16;13.80;52.80
12769;DHT22;6448;48.916;8.990;2023-04-07T02:24:19;13.80;53.00
12769;DHT22;6448;48.916;8.990;2023-04-07T02:25:23;13.80;53.10
12769;DHT22;6448;48.916;8.990;2023-04-07T02:26:24;13.80;53.20
12769;DHT22;6448;48.916;8.990;2023-04-07T02:27:24;13.80;53.20
12769;DHT22;6448;48.916;8.990;2023-04-07T02:28:26;13.90;53.20
12769;DHT22;6448;48.916;8.990;2023-04-07T02:29:27;13.80;53.00
12769;DHT22;6448;48.916;8.990;2023-04-07T02:30:29;13.80;52.80
12769;DHT22;6448;48.916;8.990;2023-04-07T02:31:30;13.80;52.90
12769;DHT22;6448;48.916;8.990;2023-04-07T02:32:35;13.70;53.00
12769;DHT22;6448;48.916;8.990;2023-04-07T02:33:36;13.90;52.90
12769;DHT22;6448;48.916;8.990;2023-04-07T02:34:38;13.80;53.00
12769;DHT22;6448;48.916;8.990;2023-04-07T02:35:40;13.80;52.80
12769;DHT22;6448;48.916;8.990;2023-04-07T02:36:42;13.80;52.80
12769;DHT22;6448;48.916;8.990;2023-04-07T02:37:44;13.80;52.90
12769;DHT22;6448;48.916;8.990;2023-04-07T02:38:46;13.80;53.10
12769;DHT22;6448;48.916;8.990;2023-04-07T02:39:47;13.80;53.00
12769;DHT22;6448;48.916;8.990;2023-04-07T02:40:48;13.80;53.10
12769;DHT22;6448;48.916;8.990;2023-04-07T02:41:49;13.80;53.00
12769;DHT22;6448;48.916;8.990;2023-04-07T02:42:51;13.90;53.20
12769;DHT22;6448;48.916;8.990;2023-04-07T02:43:52;13.80;53.10
12769;DHT22;6448;48.916;8.990;2023-04-07T02:44:54;13.80;53.20
12769;DHT22;6448;48.916;8.990;2023-04-07T02:45:54;13.80;53.20
12769;DHT22;6448;48.916;8.990;2023-04-07T02:46:57;13.80;53.10
12769;DHT22;6448;48.916;8.990;2023-04-07T02:47:59;13.80;53.10
12769;DHT22;6448;48.916;8.990;2023-04-07T02:49:01;14.00;53.00
12769;DHT22;6448;48.916;8.990;2023-04-07T02:50:02;13.80;52.80
12769;DHT22;6448;48.916;8.990;2023-04-07T02:51:08;13.80;52.80
12769;DHT22;6448;48.916;8.990;2023-04-07T02:52:09;13.80;52.90
12769;DHT22;6448;48.916;8.990;2023-04-07T02:53:11;13.80;52.80
12769;DHT22;6448;48.916;8.990;2023-04-07T02:54:11;13.80;52.90
12769;DHT22;6448;48.916;8.990;2023-04-07T02:55:13;13.80;53.20
12769;DHT22;6448;48.916;8.990;2023-04-07T02:56:15;13.70;53.20
12769;DHT22;6448;48.916;8.990;2023-04-07T02:57:16;13.80;53.30
12769;DHT22;6448;48.916;8.990;2023-04-07T02:58:17;13.80;53.30
12769;DHT22;6448;48.916;8.990;2023-04-07T02:59:19;13.80;53.30
12769;DHT22;6448;48.916;8.990;2023-04-07T03:00:20;13.80;53.20
12769;DHT22;6448;48.916;8.990;2023-04-07T03:01:48;13.80;53.20
12769;DHT22;6448;48.916;8.990;2023-04-07T03:02:51;13.80;53.00
12769;DHT22;6448;48.916;8.990;2023-04-07T03:03:53;13.90;53.10
12769;DHT22;6448;48.916;8.990;2023-04-07T03:04:58;13.80;53.00
12769;DHT22;6448;48.916;8.990;2023-04-07T03:06:01;13.80;53.00
12769;DHT22;6448;48.916;8.990;2023-04-07T03:07:05;13.80;53.00
12769;DHT22;6448;48.916;8.990;2023-04-07T03:08:07;13.80;53.10
12769;DHT22;6448;48.916;8.990;2023-04-07T03:09:08;13.80;53.30
12769;DHT22;6448;48.916;8.990;2023-04-07T03:10:09;13.80;53.20
12769;DHT22;6448;48.916;8.990;2023-04-07T03:11:11;13.80;53.10
12769;DHT22;6448;48.916;8.990;2023-04-07T03:12:12;13.80;53.00
12769;DHT22;6448;48.916;8.990;2023-04-07T03:13:14;13.90;53.10
12769;DHT22;6448;48.916;8.990;2023-04-07T03:14:16;13.90;53.00
12769;DHT22;6448;48.916;8.990;2023-04-07T03:15:21;13.80;53.10
12769;DHT22;6448;48.916;8.990;2023-04-07T03:16:22;13.80;53.40
12769;DHT22;6448;48.916;8.990;2023-04-07T03:17:41;13.80;53.30
12769;DHT22;6448;48.916;8.990;2023-04-07T03:18:42;13.80;53.30
12769;DHT22;6448;48.916;8.990;2023-04-07T03:19:45;13.70;53.20
12769;DHT22;6448;48.916;8.990;2023-04-07T03:20:47;13.70;53.20
12769;DHT22;6448;48.916;8.990;2023-04-07T03:21:50;13.70;53.20
12769;DHT22;6448;48.916;8.990;2023-04-07T03:22:51;13.80;53.50
12769;DHT22;6448;48.916;8.990;2023-04-07T03:24:00;13.80;53.50
12769;DHT22;6448;48.916;8.990;2023-04-07T03:25:01;13.80;53.40
12769;DHT22;6448;48.916;8.990;2023-04-07T03:26:05;13.80;53.60
12769;DHT22;6448;48.916;8.990;2023-04-07T03:27:09;13.70;53.50
12769;DHT22;6448;48.916;8.990;2023-04-07T03:28:18;13.80;53.40
12769;DHT22;6448;48.916;8.990;2023-04-07T03:29:19;13.80;53.30
12769;DHT22;6448;48.916;8.990;2023-04-07T03:30:21;13.70;53.20
12769;DHT22;6448;48.916;8.990;2023-04-07T03:31:22;13.80;53.20
12769;DHT22;6448;48.916;8.990;2023-04-07T03:32:26;13.80;53.30
12769;DHT22;6448;48.916;8.990;2023-04-07T03:33:27;13.80;53.30
12769;DHT22;6448;48.916;8.990;2023-04-07T03:34:29;13.70;53.20
12769;DHT22;6448;48.916;8.990;2023-04-07T03:35:33;13.90;53.20
12769;DHT22;6448;48.916;8.990;2023-04-07T03:36:35;13.80;53.30
12769;DHT22;6448;48.916;8.990;2023-04-07T03:37:39;13.70;53.30
12769;DHT22;6448;48.916;8.990;2023-04-07T03:38:46;13.70;53.30
12769;DHT22;6448;48.916;8.990;2023-04-07T03:39:50;13.70;53.50
12769;DHT22;6448;48.916;8.990;2023-04-07T03:41:00;13.80;53.50
12769;DHT22;6448;48.916;8.990;2023-04-07T03:42:02;13.80;53.50
12769;DHT22;6448;48.916;8.990;2023-04-07T03:43:05;13.70;53.50
12769;DHT22;6448;48.916;8.990;2023-04-07T03:44:11;13.80;53.50
12769;DHT22;6448;48.916;8.990;2023-04-07T03:45:14;13.70;53.50
12769;DHT22;6448;48.916;8.990;2023-04-07T03:46:20;13.80;53.50
12769;DHT22;6448;48.916;8.990;2023-04-07T03:47:21;13.80;53.80
12769;DHT22;6448;48.916;8.990;2023-04-07T03:48:28;13.70;53.90
12769;DHT22;6448;48.916;8.990;2023-04-07T03:49:35;13.70;53.90
12769;DHT22;6448;48.916;8.990;2023-04-07T03:50:40;13.70;53.90
12769;DHT22;6448;48.916;8.990;2023-04-07T03:51:47;13.70;53.90
12769;DHT22;6448;48.916;8.990;2023-04-07T03:52:51;13.70;53.80
12769;DHT22;6448;48.916;8.990;2023-04-07T03:54:02;13.70;53.80
12769;DHT22;6448;48.916;8.990;2023-04-07T03:55:14;13.70;54.50
12769;DHT22;6448;48.916;8.990;2023-04-07T03:56:16;13.70;53.80
12769;DHT22;6448;48.916;8.990;2023-04-07T03:57:20;13.70;53.80
12769;DHT22;6448;48.916;8.990;2023-04-07T03:58:24;13.80;53.90
12769;DHT22;6448;48.916;8.990;2023-04-07T03:59:24;13.70;53.80
12769;DHT22;6448;48.916;8.990;2023-04-07T04:00:35;13.70;54.00
12769;DHT22;6448;48.916;8.990;2023-04-07T04:01:41;13.70;54.10
12769;DHT22;6448;48.916;8.990;2023-04-07T04:02:49;13.70;54.20
12769;DHT22;6448;48.916;8.990;2023-04-07T04:03:53;13.70;54.20
12769;DHT22;6448;48.916;8.990;2023-04-07T04:05:00;13.70;54.70
12769;DHT22;6448;48.916;8.990;2023-04-07T04:06:03;13.70;54.00
12769;DHT22;6448;48.916;8.990;2023-04-07T04:07:06;13.70;53.90
12769;DHT22;6448;48.916;8.990;2023-04-07T04:08:12;13.70;54.00
12769;DHT22;6448;48.916;8.990;2023-04-07T04:09:15;13.70;54.00
12769;DHT22;6448;48.916;8.990;2023-04-07T04:10:19;13.80;54.30
12769;DHT22;6448;48.916;8.990;2023-04-07T04:11:24;13.90;54.00
12769;DHT22;6448;48.916;8.990;2023-04-07T04:12:34;13.80;54.00
12769;DHT22;6448;48.916;8.990;2023-04-07T04:13:41;13.70;53.80
12769;DHT22;6448;48.916;8.990;2023-04-07T04:14:42;13.90;53.90
12769;DHT22;6448;48.916;8.990;2023-04-07T04:15:45;13.70;53.80
12769;DHT22;6448;48.916;8.990;2023-04-07T04:16:49;13.70;53.90
12769;DHT22;6448;48.916;8.990;2023-04-07T04:18:00;13.70;53.90
12769;DHT22;6448;48.916;8.990;2023-04-07T04:19:01;13.70;53.90
12769;DHT22;6448;48.916;8.990;2023-04-07T04:20:06;13.80;53.90
12769;DHT22;6448;48.916;8.990;2023-04-07T04:21:25;13.70;53.80
12769;DHT22;6448;48.916;8.990;2023-04-07T04:22:27;13.70;53.80
12769;DHT22;6448;48.916;8.990;2023-04-07T04:23:31;13.80;53.80
12769;DHT22;6448;48.916;8.990;2023-04-07T04:24:33;13.70;53.80
12769;DHT22;6448;48.916;8.990;2023-04-07T04:25:36;13.70;53.80
12769;DHT22;6448;48.916;8.990;2023-04-07T04:26:41;13.70;53.80
12769;DHT22;6448;48.916;8.990;2023-04-07T04:27:45;13.70;53.80
12769;DHT22;6448;48.916;8.990;2023-04-07T04:28:54;13.70;53.80
12769;DHT22;6448;48.916;8.990;2023-04-07T04:29:56;13.70;53.80
12769;DHT22;6448;48.916;8.990;2023-04-07T04:31:08;13.70;53.80
12769;DHT22;6448;48.916;8.990;2023-04-07T04:32:14;13.70;54.20
12769;DHT22;6448;48.916;8.990;2023-04-07T04:33:17;13.70;53.90
12769;DHT22;6448;48.916;8.990;2023-04-07T04:34:30;13.70;54.20
12769;DHT22;6448;48.916;8.990;2023-04-07T04:35:31;13.70;54.00
12769;DHT22;6448;48.916;8.990;2023-04-07T04:36:44;13.70;54.10
12769;DHT22;6448;48.916;8.990;2023-04-07T04:37:46;13.70;53.90
12769;DHT22;6448;48.916;8.990;2023-04-07T04:38:48;13.70;53.90
12769;DHT22;6448;48.916;8.990;2023-04-07T04:39:53;13.70;53.90
12769;DHT22;6448;48.916;8.990;2023-04-07T04:40:56;13.70;54.00
12769;DHT22;6448;48.916;8.990;2023-04-07T04:42:02;13.70;53.90
12769;DHT22;6448;48.916;8.990;2023-04-07T04:43:08;13.70;54.00
12769;DHT22;6448;48.916;8.990;2023-04-07T04:44:11;13.70;54.00
12769;DHT22;6448;48.916;8.990;2023-04-07T04:45:15;13.80;54.00
12769;DHT22;6448;48.916;8.990;2023-04-07T04:46:20;13.70;54.00
12769;DHT22;6448;48.916;8.990;2023-04-07T04:47:23;13.60;53.80
12769;DHT22;6448;48.916;8.990;2023-04-07T04:48:25;13.70;54.00
12769;DHT22;6448;48.916;8.990;2023-04-07T04:49:26;13.70;53.90
12769;DHT22;6448;48.916;8.990;2023-04-07T04:50:31;13.60;54.00
12769;DHT22;6448;48.916;8.990;2023-04-07T04:51:33;13.70;54.00
12769;DHT22;6448;48.916;8.990;2023-04-07T04:52:45;13.70;54.30
12769;DHT22;6448;48.916;8.990;2023-04-07T04:53:53;13.70;54.30
12769;DHT22;6448;48.916;8.990;2023-04-07T04:54:56;13.70;54.20
12769;DHT22;6448;48.916;8.990;2023-04-07T04:55:59;13.60;54.20
12769;DHT22;6448;48.916;8.990;2023-04-07T04:57:17;13.80;54.30
12769;DHT22;6448;48.916;8.990;2023-04-07T04:58:19;13.60;54.20
12769;DHT22;6448;48.916;8.990;2023-04-07T04:59:24;13.50;54.10
12769;DHT22;6448;48.916;8.990;2023-04-07T05:00:37;13.60;54.20
12769;DHT22;6448;48.916;8.990;2023-04-07T05:01:41;13.60;54.00
12769;DHT22;6448;48.916;8.990;2023-04-07T05:02:46;13.60;54.20
12769;DHT22;6448;48.916;8.990;2023-04-07T05:03:49;13.60;54.10
12769;DHT22;6448;48.916;8.990;2023-04-07T05:04:57;13.60;54.00
12769;DHT22;6448;48.916;8.990;2023-04-07T05:06:02;13.80;54.00
12769;DHT22;6448;48.916;8.990;2023-04-07T05:07:03;13.60;53.90
12769;DHT22;6448;48.916;8.990;2023-04-07T05:08:09;13.60;54.00
12769;DHT22;6448;48.916;8.990;2023-04-07T05:09:12;13.60;54.30
12769;DHT22;6448;48.916;8.990;2023-04-07T05:10:19;13.60;54.40
12769;DHT22;6448;48.916;8.990;2023-04-07T05:11:24;13.70;54.50
12769;DHT22;6448;48.916;8.990;2023-04-07T05:12:27;13.60;54.50
12769;DHT22;6448;48.916;8.990;2023-04-07T05:13:34;13.60;54.60
12769;DHT22;6448;48.916;8.990;2023-04-07T05:14:37;13.60;54.40
12769;DHT22;6448;48.916;8.990;2023-04-07T05:15:41;13.60;54.30
12769;DHT22;6448;48.916;8.990;2023-04-07T05:16:45;13.70;54.30
12769;DHT22;6448;48.916;8.990;2023-04-07T05:17:52;13.60;54.40
12769;DHT22;6448;48.916;8.990;2023-04-07T05:18:57;13.60;54.40
12769;DHT22;6448;48.916;8.990;2023-04-07T05:20:00;13.60;54.50
12769;DHT22;6448;48.916;8.990;2023-04-07T05:21:09;13.60;54.60
12769;DHT22;6448;48.916;8.990;2023-04-07T05:22:11;13.60;54.60
12769;DHT22;6448;48.916;8.990;2023-04-07T05:23:20;13.60;54.70
12769;DHT22;6448;48.916;8.990;2023-04-07T05:24:25;13.60;54.90
12769;DHT22;6448;48.916;8.990;2023-04-07T05:25:30;13.70;55.10
12769;DHT22;6448;48.916;8.990;2023-04-07T05:26:34;13.60;55.00
12769;DHT22;6448;48.916;8.990;2023-04-07T05:27:38;13.60;55.00
12769;DHT22;6448;48.916;8.990;2023-04-07T05:28:45;13.50;55.10
12769;DHT22;6448;48.916;8.990;2023-04-07T05:29:51;13.50;55.10
12769;DHT22;6448;48.916;8.990;2023-04-07T05:30:59;13.50;55.00
12769;DHT22;6448;48.916;8.990;2023-04-07T05:32:05;13.60;55.20
12769;DHT22;6448;48.916;8.990;2023-04-07T05:33:06;13.50;55.10
12769;DHT22;6448;48.916;8.990;2023-04-07T05:34:21;13.50;55.00
12769;DHT22;6448;48.916;8.990;2023-04-07T05:35:26;13.50;55.00
12769;DHT22;6448;48.916;8.990;2023-04-07T05:36:30;13.50;55.20
12769;DHT22;6448;48.916;8.990;2023-04-07T05:37:32;13.50;55.30
12769;DHT22;6448;48.916;8.990;2023-04-07T05:38:38;13.50;55.30
12769;DHT22;6448;48.916;8.990;2023-04-07T05:39:45;13.50;55.10
12769;DHT22;6448;48.916;8.990;2023-04-07T05:40:48;13.50;55.10
12769;DHT22;6448;48.916;8.990;2023-04-07T05:41:57;13.60;55.30
12769;DHT22;6448;48.916;8.990;2023-04-07T05:43:01;13.70;55.30
12769;DHT22;6448;48.916;8.990;2023-04-07T05:44:05;13.50;55.10
12769;DHT22;6448;48.916;8.990;2023-04-07T05:45:10;13.50;55.10
12769;DHT22;6448;48.916;8.990;2023-04-07T05:46:15;13.50;55.20
12769;DHT22;6448;48.916;8.990;2023-04-07T05:47:25;13.50;55.30
12769;DHT22;6448;48.916;8.990;2023-04-07T05:48:26;13.60;55.30
12769;DHT22;6448;48.916;8.990;2023-04-07T05:49:29;13.50;55.50
12769;DHT22;6448;48.916;8.990;2023-04-07T05:50:36;13.40;55.40
12769;DHT22;6448;48.916;8.990;2023-04-07T05:51:41;13.50;55.40
12769;DHT22;6448;48.916;8.990;2023-04-07T05:52:45;13.40;55.10
12769;DHT22;6448;48.916;8.990;2023-04-07T05:54:01;13.50;55.00
12769;DHT22;6448;48.916;8.990;2023-04-07T05:55:02;13.40;54.80
12769;DHT22;6448;48.916;8.990;2023-04-07T05:56:05;13.40;54.90
12769;DHT22;6448;48.916;8.990;2023-04-07T05:57:18;13.40;54.90
12769;DHT22;6448;48.916;8.990;2023-04-07T05:58:22;13.40;54.90
12769;DHT22;6448;48.916;8.990;2023-04-07T05:59:26;13.60;55.20
12769;DHT22;6448;48.916;8.990;2023-04-07T06:00:28;13.60;55.20
12769;DHT22;6448;48.916;8.990;2023-04-07T06:01:38;13.40;55.10
12769;DHT22;6448;48.916;8.990;2023-04-07T06:02:40;13.40;55.00
12769;DHT22;6448;48.916;8.990;2023-04-07T06:03:46;13.30;54.90
12769;DHT22;6448;48.916;8.990;2023-04-07T06:04:52;13.50;54.90
12769;DHT22;6448;48.916;8.990;2023-04-07T06:05:54;13.40;54.80
12769;DHT22;6448;48.916;8.990;2023-04-07T06:06:57;13.40;55.00
12769;DHT22;6448;48.916;8.990;2023-04-07T06:07:58;13.40;54.90
12769;DHT22;6448;48.916;8.990;2023-04-07T06:09:03;13.40;54.90
12769;DHT22;6448;48.916;8.990;2023-04-07T06:10:07;13.40;54.80
12769;DHT22;6448;48.916;8.990;2023-04-07T06:11:08;13.40;54.90
12769;DHT22;6448;48.916;8.990;2023-04-07T06:12:09;13.40;54.80
12769;DHT22;6448;48.916;8.990;2023-04-07T06:13:12;13.30;54.80
12769;DHT22;6448;48.916;8.990;2023-04-07T06:14:14;13.40;54.90
12769;DHT22;6448;48.916;8.990;2023-04-07T06:15:14;13.40;55.00
12769;DHT22;6448;48.916;8.990;2023-04-07T06:16:17;13.40;55.00
12769;DHT22;6448;48.916;8.990;2023-04-07T06:17:18;13.40;54.90
12769;DHT22;6448;48.916;8.990;2023-04-07T06:18:22;13.40;54.90
12769;DHT22;6448;48.916;8.990;2023-04-07T06:19:22;13.40;54.80
12769;DHT22;6448;48.916;8.990;2023-04-07T06:20:24;13.40;54.80
12769;DHT22;6448;48.916;8.990;2023-04-07T06:21:27;13.40;55.00
12769;DHT22;6448;48.916;8.990;2023-04-07T06:22:29;13.40;55.10
12769;DHT22;6448;48.916;8.990;2023-04-07T06:23:30;13.30;55.10
12769;DHT22;6448;48.916;8.990;2023-04-07T06:24:33;13.40;55.10
12769;DHT22;6448;48.916;8.990;2023-04-07T06:25:34;13.40;55.30
12769;DHT22;6448;48.916;8.990;2023-04-07T06:26:36;13.40;55.40
12769;DHT22;6448;48.916;8.990;2023-04-07T06:27:37;13.40;55.60
12769;DHT22;6448;48.916;8.990;2023-04-07T06:28:39;13.50;55.70
12769;DHT22;6448;48.916;8.990;2023-04-07T06:29:40;13.40;55.70
12769;DHT22;6448;48.916;8.990;2023-04-07T06:30:43;13.40;55.50
12769;DHT22;6448;48.916;8.990;2023-04-07T06:31:46;13.40;55.40
12769;DHT22;6448;48.916;8.990;2023-04-07T06:32:48;13.50;55.30
12769;DHT22;6448;48.916;8.990;2023-04-07T06:33:49;13.40;55.90
12769;DHT22;6448;48.916;8.990;2023-04-07T06:34:50;13.40;55.30
12769;DHT22;6448;48.916;8.990;2023-04-07T06:35:51;13.40;55.30
12769;DHT22;6448;48.916;8.990;2023-04-07T06:36:53;13.40;55.20
12769;DHT22;6448;48.916;8.990;2023-04-07T06:37:54;13.50;55.40
12769;DHT22;6448;48.916;8.990;2023-04-07T06:38:56;13.40;55.40
12769;DHT22;6448;48.916;8.990;2023-04-07T06:39:58;13.40;55.50
12769;DHT22;6448;48.916;8.990;2023-04-07T06:41:00;13.40;55.50
12769;DHT22;6448;48.916;8.990;2023-04-07T06:42:01;13.40;55.30
12769;DHT22;6448;48.916;8.990;2023-04-07T06:43:02;13.40;55.20
12769;DHT22;6448;48.916;8.990;2023-04-07T06:44:23;13.40;55.20
12769;DHT22;6448;48.916;8.990;2023-04-07T06:45:25;13.60;55.60
12769;DHT22;6448;48.916;8.990;2023-04-07T06:46:25;13.40;55.70
12769;DHT22;6448;48.916;8.990;2023-04-07T06:47:27;13.40;55.80
12769;DHT22;6448;48.916;8.990;2023-04-07T06:48:28;13.40;55.90
12769;DHT22;6448;48.916;8.990;2023-04-07T06:49:30;13.50;56.10
12769;DHT22;6448;48.916;8.990;2023-04-07T06:50:31;13.40;55.80
12769;DHT22;6448;48.916;8.990;2023-04-07T06:51:33;13.40;55.70
12769;DHT22;6448;48.916;8.990;2023-04-07T06:52:34;13.30;55.60